createdAt,value
2024-02-08T00:01:01.446Z,0.74
2024-02-08T00:06:15.625Z,0.80
2024-02-08T00:11:18.803Z,0.84
2024-02-08T00:16:22.006Z,0.87
2024-02-08T00:21:25.168Z,0.92
2024-02-08T00:26:28.202Z,0.94
2024-02-08T00:31:31.116Z,0.97
2024-02-08T00:36:34.131Z,1.01
2024-02-08T00:41:37.926Z,1.04
2024-02-08T00:46:41.084Z,1.06
2024-02-08T00:51:44.009Z,1.08
2024-02-08T00:56:46.931Z,1.10
2024-02-08T01:01:49.880Z,1.11
2024-02-08T01:06:52.814Z,1.13
2024-02-08T01:11:56.486Z,1.14
2024-02-08T01:16:59.500Z,1.16
2024-02-08T01:22:02.609Z,1.17
2024-02-08T01:27:05.990Z,1.18
2024-02-08T01:32:09.517Z,1.17
2024-02-08T01:37:16.531Z,1.10
2024-02-08T01:42:19.689Z,0.98
2024-02-08T01:47:23.164Z,0.84
2024-02-08T01:52:26.251Z,0.71
2024-02-08T01:57:29.791Z,0.66
2024-02-08T02:02:37.291Z,0.74
2024-02-08T02:07:40.284Z,0.82
2024-02-08T02:12:46.947Z,0.87
2024-02-08T02:17:50.016Z,0.90
2024-02-08T02:22:53.108Z,0.90
2024-02-08T02:28:02.111Z,0.91
2024-02-08T02:33:07.610Z,0.97
2024-02-08T02:38:14.237Z,1.01
2024-02-08T02:43:17.588Z,1.03
2024-02-08T02:48:22.434Z,1.01
2024-02-08T02:53:25.797Z,0.99
2024-02-08T02:58:28.838Z,1.00
2024-02-08T03:03:39.358Z,1.00
2024-02-08T03:08:45.374Z,1.00
2024-02-08T03:13:50.484Z,1.01
2024-02-08T03:18:53.497Z,1.01
2024-02-08T03:23:58.005Z,0.99
2024-02-08T03:29:01.329Z,0.90
2024-02-08T03:34:04.449Z,0.76
2024-02-08T03:39:14.650Z,0.52
2024-02-08T03:44:17.730Z,0.27
2024-02-08T03:49:21.725Z,0.10
2024-02-08T03:54:31.695Z,-0.05
2024-02-08T03:59:42.489Z,-0.16
2024-02-08T04:05:01.326Z,-0.28
2024-02-08T04:10:21.061Z,-0.42
2024-02-08T04:15:42.726Z,-0.51
2024-02-08T04:21:04.255Z,-0.61
2024-02-08T04:26:28.536Z,-0.72
2024-02-08T04:31:50.120Z,-0.81
2024-02-08T04:37:11.815Z,-0.92
2024-02-08T04:42:33.353Z,-0.98
2024-02-08T04:48:05.751Z,-1.03
2024-02-08T04:53:29.062Z,-1.12
2024-02-08T04:58:56.718Z,-1.18
2024-02-08T05:03:55.225Z,-1.25
2024-02-08T05:09:01.259Z,-1.30
2024-02-08T05:14:06.107Z,-1.34
2024-02-08T05:19:12.497Z,-1.39
2024-02-08T05:24:15.623Z,-1.46
2024-02-08T05:29:22.726Z,-1.52
2024-02-08T05:34:27.419Z,-1.57
2024-02-08T05:39:31.002Z,-1.59
2024-02-08T05:44:41.595Z,-1.65
2024-02-08T05:49:51.053Z,-1.69
2024-02-08T05:54:54.650Z,-1.71
2024-02-08T06:00:01.730Z,-1.73
2024-02-08T06:05:11.067Z,-1.76
2024-02-08T06:10:16.057Z,-1.80
2024-02-08T06:15:23.540Z,-1.82
2024-02-08T06:20:46.464Z,-1.82
2024-02-08T06:26:21.413Z,-1.81
2024-02-08T06:31:35.017Z,-1.72
2024-02-08T06:36:59.491Z,-1.64
2024-02-08T06:42:28.836Z,-1.59
2024-02-08T06:47:52.471Z,-1.52
2024-02-08T06:53:14.220Z,-1.48
2024-02-08T06:58:36.182Z,-1.32
2024-02-08T07:03:59.426Z,-1.19
2024-02-08T07:09:22.304Z,-1.20
2024-02-08T07:14:44.175Z,-1.15
2024-02-08T07:20:05.832Z,-1.02
2024-02-08T07:25:27.723Z,-0.86
2024-02-08T07:30:49.430Z,-0.76
2024-02-08T07:36:11.582Z,-0.62
2024-02-08T07:41:20.283Z,-0.45
2024-02-08T07:46:32.021Z,-0.26
2024-02-08T07:51:35.805Z,-0.05
2024-02-08T07:56:47.864Z,0.09
2024-02-08T08:01:52.124Z,0.66
2024-02-08T08:07:01.794Z,1.30
2024-02-08T08:12:06.326Z,1.10
2024-02-08T08:17:09.792Z,1.01
2024-02-08T08:22:26.401Z,2.35
2024-02-08T08:27:48.692Z,3.78
2024-02-08T08:32:54.576Z,4.03
2024-02-08T08:38:20.949Z,4.35
2024-02-08T08:43:25.761Z,4.50
2024-02-08T08:48:35.200Z,5.21
2024-02-08T08:53:48.730Z,5.84
2024-02-08T08:58:52.041Z,5.99
2024-02-08T09:04:24.049Z,5.91
2024-02-08T09:09:50.119Z,5.47
2024-02-08T09:14:55.122Z,5.40
2024-02-08T09:20:00.946Z,5.08
2024-02-08T09:25:22.827Z,4.85
2024-02-08T09:30:40.718Z,5.52
2024-02-08T09:35:44.406Z,6.02
2024-02-08T09:40:48.081Z,5.97
2024-02-08T09:46:10.372Z,5.76
2024-02-08T09:51:24.473Z,5.99
2024-02-08T09:56:51.799Z,6.33
2024-02-08T10:01:57.554Z,6.38
2024-02-08T10:07:07.301Z,6.25
2024-02-08T10:12:21.987Z,6.07
2024-02-08T10:17:42.353Z,6.08
2024-02-08T10:23:06.764Z,6.28
2024-02-08T10:28:10.617Z,6.45
2024-02-08T10:34:12.254Z,6.48
2024-02-08T10:39:27.993Z,6.25
2024-02-08T10:44:36.082Z,5.90
2024-02-08T10:49:46.766Z,5.38
2024-02-08T10:54:58.474Z,4.91
2024-02-08T11:00:14.691Z,4.60
2024-02-08T11:05:23.172Z,4.38
2024-02-08T11:10:33.477Z,4.19
2024-02-08T11:15:49.212Z,4.16
2024-02-08T11:21:05.768Z,4.09
2024-02-08T11:26:09.817Z,4.04
2024-02-08T11:31:23.218Z,4.05
2024-02-08T11:36:36.529Z,4.10
2024-02-08T11:41:44.334Z,4.13
2024-02-08T11:46:52.764Z,4.08
2024-02-08T11:51:56.074Z,4.00
2024-02-08T11:57:07.060Z,3.90
2024-02-08T12:02:13.156Z,3.81
2024-02-08T12:07:21.517Z,3.77
2024-02-08T12:12:26.942Z,3.74
2024-02-08T12:17:30.118Z,3.71
2024-02-08T12:22:33.686Z,3.69
2024-02-08T12:27:37.815Z,3.69
2024-02-08T12:32:41.128Z,3.71
2024-02-08T12:37:56.050Z,3.79
2024-02-08T12:43:10.180Z,3.89
2024-02-08T12:48:22.274Z,3.95
2024-02-08T12:53:27.085Z,3.97
2024-02-08T12:58:46.641Z,3.99
2024-02-08T13:04:01.684Z,4.01
2024-02-08T13:09:36.921Z,4.05
2024-02-08T13:15:08.019Z,4.00
2024-02-08T13:20:20.037Z,3.97
2024-02-08T13:25:31.382Z,3.98
2024-02-08T13:30:38.080Z,3.92
2024-02-08T13:35:42.343Z,3.92
2024-02-08T13:40:46.800Z,3.90
2024-02-08T13:45:56.155Z,3.97
2024-02-08T13:51:07.535Z,4.06
2024-02-08T13:56:13.737Z,4.15
2024-02-08T14:01:26.831Z,4.17
2024-02-08T14:06:31.399Z,4.11
2024-02-08T14:11:40.163Z,3.99
2024-02-08T14:16:46.931Z,3.89
2024-02-08T14:21:55.416Z,3.79
2024-02-08T14:26:58.588Z,3.70
2024-02-08T14:32:07.071Z,3.61
2024-02-08T14:37:13.722Z,3.52
2024-02-08T14:42:26.155Z,3.45
2024-02-08T14:47:32.689Z,3.39
2024-02-08T14:52:37.644Z,3.30
2024-02-08T14:57:43.864Z,3.22
2024-02-08T15:02:57.010Z,3.12
2024-02-08T15:08:09.911Z,3.00
2024-02-08T15:13:20.156Z,2.92
2024-02-08T15:18:40.519Z,2.87
2024-02-08T15:23:50.150Z,2.78
2024-02-08T15:28:58.790Z,2.68
2024-02-08T15:34:23.592Z,2.53
2024-02-08T15:39:30.604Z,2.36
2024-02-08T15:44:37.005Z,2.24
2024-02-08T15:49:44.415Z,2.11
2024-02-08T15:54:52.386Z,2.02
2024-02-08T15:59:58.671Z,2.02
2024-02-08T16:05:15.161Z,2.02
2024-02-08T16:10:25.844Z,2.04
2024-02-08T16:15:29.492Z,2.04
2024-02-08T16:20:40.219Z,2.04
2024-02-08T16:25:46.015Z,2.02
2024-02-08T16:31:00.341Z,1.93
2024-02-08T16:36:24.919Z,1.81
2024-02-08T16:41:32.764Z,1.71
2024-02-08T16:46:38.596Z,1.65
2024-02-08T16:51:52.305Z,1.61
2024-02-08T16:56:57.435Z,1.58
2024-02-08T17:02:13.367Z,1.54
2024-02-08T17:07:47.065Z,1.52
2024-02-08T17:12:56.745Z,1.46
2024-02-08T17:19:09.720Z,1.37
2024-02-08T17:24:23.582Z,1.25
2024-02-08T17:29:36.869Z,1.16
2024-02-08T17:34:41.210Z,1.09
2024-02-08T17:39:49.399Z,1.06
2024-02-08T17:45:02.434Z,1.02
2024-02-08T17:50:06.588Z,0.98
2024-02-08T17:55:09.830Z,0.92
2024-02-08T18:00:23.071Z,0.90
2024-02-08T18:05:28.831Z,0.91
2024-02-08T18:10:51.944Z,0.93
2024-02-08T18:16:04.685Z,0.94
2024-02-08T18:21:15.122Z,0.96
2024-02-08T18:26:28.857Z,1.01
2024-02-08T18:31:38.560Z,1.02
2024-02-08T18:36:47.537Z,1.02
2024-02-08T18:41:52.398Z,0.98
2024-02-08T18:46:56.215Z,0.96
2024-02-08T18:51:59.709Z,1.03
2024-02-08T18:57:10.357Z,1.11
2024-02-08T19:02:13.988Z,1.16
2024-02-08T19:07:19.978Z,1.25
2024-02-08T19:12:27.101Z,1.33
2024-02-08T19:17:31.905Z,1.40
2024-02-08T19:22:35.270Z,1.44
2024-02-08T19:27:39.743Z,1.43
2024-02-08T19:32:44.531Z,1.41
2024-02-08T19:37:51.481Z,1.37
2024-02-08T19:42:54.450Z,1.32
2024-02-08T19:47:57.577Z,1.28
2024-02-08T19:53:07.595Z,1.24
2024-02-08T19:58:11.028Z,1.20
2024-02-08T20:03:21.889Z,1.14
2024-02-08T20:08:27.410Z,1.08
2024-02-08T20:13:31.690Z,1.03
2024-02-08T20:18:38.614Z,0.99
2024-02-08T20:23:41.711Z,0.94
2024-02-08T20:28:45.319Z,0.93
2024-02-08T20:33:49.271Z,0.92
2024-02-08T20:38:55.829Z,0.91
2024-02-08T20:44:08.655Z,0.93
2024-02-08T20:49:16.993Z,1.00
2024-02-08T20:54:20.068Z,1.09
2024-02-08T20:59:24.895Z,1.14
2024-02-08T21:04:29.864Z,1.21
2024-02-08T21:09:32.992Z,1.29
2024-02-08T21:14:36.202Z,1.36
2024-02-08T21:19:44.686Z,1.38
2024-02-08T21:24:49.332Z,1.39
2024-02-08T21:29:55.222Z,1.39
2024-02-08T21:34:58.407Z,1.42
2024-02-08T21:40:02.554Z,1.42
2024-02-08T21:45:06.276Z,1.45
2024-02-08T21:50:11.448Z,1.46
2024-02-08T21:55:17.188Z,1.47
2024-02-08T22:00:20.343Z,1.49
2024-02-08T22:05:23.405Z,1.50
2024-02-08T22:10:27.625Z,1.52
2024-02-08T22:15:33.606Z,1.55
2024-02-08T22:20:36.725Z,1.55
2024-02-08T22:25:39.613Z,1.53
2024-02-08T22:30:44.632Z,1.53
2024-02-08T22:35:48.146Z,1.56
2024-02-08T22:40:51.174Z,1.57
2024-02-08T22:45:54.229Z,1.56
2024-02-08T22:50:57.153Z,1.59
2024-02-08T22:56:01.501Z,1.57
2024-02-08T23:01:24.870Z,1.55
2024-02-08T23:06:32.127Z,1.53
2024-02-08T23:11:38.154Z,1.53
2024-02-08T23:16:41.207Z,1.58
2024-02-08T23:21:53.126Z,1.59
2024-02-08T23:26:56.546Z,1.60
2024-02-08T23:32:00.375Z,1.59
2024-02-08T23:37:08.053Z,1.58
2024-02-08T23:42:11.002Z,1.58
2024-02-08T23:47:18.878Z,1.56
2024-02-08T23:52:21.971Z,1.56
2024-02-08T23:57:24.936Z,1.57
